Veribest, TX (76886)

4:51 PM CDT on September 01, 2015 (GMT -0500)
San Angelo Regional-Mathis | | Change Station
CLOSE
Current Station
Airport
Location: San Angelo,
Elevation: 1909 ft
Nearby Weather Stations

Elev 1909 ft 31.35 °N, 100.49 °W | Updated 1 hour ago

Scattered Clouds
Scattered Clouds
95 °F
Feels Like 93 °F
N
9
Wind Variable Wind from SSE
Gusts 17 mph

Today
High -- | Low -- °F
--% Chance of Precip.
Yesterday
High -- | Low -- °F
Precip. -- in
7:17 AM 8:05 PM
Waning Gibbous, 86% visible
Pressure 29.90 in
Visibility 10.0 miles
Clouds Scattered Clouds 9000 ft
Heat Index 93 °F
Dew Point 56 °F
Humidity 27%
Rainfall 0.00 in
Snow Depth Not available.
UV 7 out of 12
Pollen 8.90 out of 12
Air Quality Not available.
Flu Activity Not available.
METAR KSJT 012051Z 15008G15KT 10SM SCT090 35/13 A2998 RMK AO2 SLP123 T03500133 58020
Pressure 29.90 in
Visibility 10.0 miles
Clouds Scattered Clouds 9000 ft
Heat Index 93 °F
Dew Point 56 °F
Humidity 27%
Rainfall 0.00 in
Snow Depth Not available.
UV 7 out of 12
Pollen 8.90 out of 12
Air Quality Not available.
Flu Activity Not available.
METAR KSJT 012051Z 15008G15KT 10SM SCT090 35/13 A2998 RMK AO2 SLP123 T03500133 58020

10-Day Weather Forecast

×

Almanac

Astronomy

Sep. 01, 2015 Rise Set
Actual Time
Civil Twilight
Nautical Twilight
Astronomical Twilight
Moon
Length of Visible Light
Length of Day
Tomorrow will be .
, % of the Moon is Illuminated

Today's Extremes

State Highs State Lows

Community

WunderPhotos

Upload Photos

1,851,628 photos uploaded!

WunderBlogs® & News

Nearby

Air Quality

  Air Quality AQ Index Pollutant
Not available.

Snow Depth

Station Depth Elevation

Earthquake Activity

City Distance Mag. Time & Date
Minimum magnitude displayed is 2.5.

Coastal Water Temperatures

Place Temperature

Stations

Nearby Weather Stations

Station Location Temp. Windchill Dew Point Humidity Wind Precip. Elev Updated Type